sensor_id;sensor_type;location;lat;lon;timestamp;temperature;humidity
19586;DHT22;9939;49.246;9.106;2022-09-29T00:00:43;7.10;99.90
19586;DHT22;9939;49.246;9.106;2022-09-29T00:03:09;7.00;99.90
19586;DHT22;9939;49.246;9.106;2022-09-29T00:05:37;7.10;99.90
19586;DHT22;9939;49.246;9.106;2022-09-29T00:08:04;7.00;99.90
19586;DHT22;9939;49.246;9.106;2022-09-29T00:10:31;6.90;99.90
19586;DHT22;9939;49.246;9.106;2022-09-29T00:12:58;6.70;99.90
19586;DHT22;9939;49.246;9.106;2022-09-29T00:15:25;6.80;99.90
19586;DHT22;9939;49.246;9.106;2022-09-29T00:17:52;6.80;99.90
19586;DHT22;9939;49.246;9.106;2022-09-29T00:20:39;6.80;99.90
19586;DHT22;9939;49.246;9.106;2022-09-29T00:23:06;7.00;99.90
19586;DHT22;9939;49.246;9.106;2022-09-29T00:25:33;7.00;99.90
19586;DHT22;9939;49.246;9.106;2022-09-29T00:28:00;7.10;99.90
19586;DHT22;9939;49.246;9.106;2022-09-29T00:30:27;7.10;99.90
19586;DHT22;9939;49.246;9.106;2022-09-29T00:32:54;7.00;99.90
19586;DHT22;9939;49.246;9.106;2022-09-29T00:35:22;7.00;99.90
19586;DHT22;9939;49.246;9.106;2022-09-29T00:37:49;7.00;99.90
19586;DHT22;9939;49.246;9.106;2022-09-29T00:40:16;7.10;99.90
19586;DHT22;9939;49.246;9.106;2022-09-29T00:42:43;7.00;99.90
19586;DHT22;9939;49.246;9.106;2022-09-29T00:45:18;7.10;99.90
19586;DHT22;9939;49.246;9.106;2022-09-29T00:48:26;6.90;99.90
19586;DHT22;9939;49.246;9.106;2022-09-29T00:50:49;6.90;99.90
19586;DHT22;9939;49.246;9.106;2022-09-29T00:53:19;6.80;99.90
19586;DHT22;9939;49.246;9.106;2022-09-29T00:58:46;6.80;99.90
19586;DHT22;9939;49.246;9.106;2022-09-29T01:01:21;6.70;99.90
19586;DHT22;9939;49.246;9.106;2022-09-29T01:03:52;6.60;99.90
19586;DHT22;9939;49.246;9.106;2022-09-29T01:06:29;6.50;99.90
19586;DHT22;9939;49.246;9.106;2022-09-29T01:09:02;6.70;99.90
19586;DHT22;9939;49.246;9.106;2022-09-29T01:11:30;6.60;99.90
19586;DHT22;9939;49.246;9.106;2022-09-29T01:13:59;6.50;99.90
19586;DHT22;9939;49.246;9.106;2022-09-29T01:16:33;6.50;99.90
19586;DHT22;9939;49.246;9.106;2022-09-29T01:22:13;6.50;99.90
19586;DHT22;9939;49.246;9.106;2022-09-29T01:27:45;6.50;99.90
19586;DHT22;9939;49.246;9.106;2022-09-29T01:43:57;6.70;99.90
19586;DHT22;9939;49.246;9.106;2022-09-29T01:46:29;6.70;99.90
19586;DHT22;9939;49.246;9.106;2022-09-29T01:48:58;6.80;99.90
19586;DHT22;9939;49.246;9.106;2022-09-29T01:51:53;6.80;99.90
19586;DHT22;9939;49.246;9.106;2022-09-29T01:54:26;6.90;99.90
19586;DHT22;9939;49.246;9.106;2022-09-29T01:57:00;7.00;99.90
19586;DHT22;9939;49.246;9.106;2022-09-29T01:59:30;7.00;99.90
19586;DHT22;9939;49.246;9.106;2022-09-29T02:02:06;7.00;99.90
19586;DHT22;9939;49.246;9.106;2022-09-29T02:04:55;7.10;99.90
19586;DHT22;9939;49.246;9.106;2022-09-29T02:07:36;7.20;99.90
19586;DHT22;9939;49.246;9.106;2022-09-29T02:10:17;7.20;99.90
19586;DHT22;9939;49.246;9.106;2022-09-29T02:12:47;7.20;99.90
19586;DHT22;9939;49.246;9.106;2022-09-29T02:15:23;7.20;99.90
19586;DHT22;9939;49.246;9.106;2022-09-29T02:17:54;7.20;99.90
19586;DHT22;9939;49.246;9.106;2022-09-29T02:20:23;7.20;99.90
19586;DHT22;9939;49.246;9.106;2022-09-29T02:22:50;7.40;99.90
19586;DHT22;9939;49.246;9.106;2022-09-29T02:25:18;7.30;99.90
19586;DHT22;9939;49.246;9.106;2022-09-29T02:27:46;7.30;99.90
19586;DHT22;9939;49.246;9.106;2022-09-29T02:30:15;7.40;99.90
19586;DHT22;9939;49.246;9.106;2022-09-29T02:32:43;7.40;99.90
19586;DHT22;9939;49.246;9.106;2022-09-29T02:35:12;7.40;99.90
19586;DHT22;9939;49.246;9.106;2022-09-29T02:38:04;7.30;99.90
19586;DHT22;9939;49.246;9.106;2022-09-29T02:40:40;7.40;99.90
19586;DHT22;9939;49.246;9.106;2022-09-29T02:44:03;7.40;99.90
19586;DHT22;9939;49.246;9.106;2022-09-29T03:00:07;7.60;99.90
19586;DHT22;9939;49.246;9.106;2022-09-29T03:02:36;7.50;99.90
19586;DHT22;9939;49.246;9.106;2022-09-29T03:05:05;7.50;99.90
19586;DHT22;9939;49.246;9.106;2022-09-29T03:07:35;7.50;99.90
19586;DHT22;9939;49.246;9.106;2022-09-29T03:10:04;7.70;99.90
19586;DHT22;9939;49.246;9.106;2022-09-29T03:12:32;7.60;99.90
19586;DHT22;9939;49.246;9.106;2022-09-29T03:14:59;7.50;99.90
19586;DHT22;9939;49.246;9.106;2022-09-29T03:17:26;7.50;99.90
19586;DHT22;9939;49.246;9.106;2022-09-29T03:19:53;7.30;99.90
19586;DHT22;9939;49.246;9.106;2022-09-29T03:22:20;7.50;99.90
19586;DHT22;9939;49.246;9.106;2022-09-29T03:24:47;7.50;99.90
19586;DHT22;9939;49.246;9.106;2022-09-29T03:27:14;7.40;99.90
19586;DHT22;9939;49.246;9.106;2022-09-29T03:29:41;7.20;99.90
19586;DHT22;9939;49.246;9.106;2022-09-29T03:32:08;7.10;99.90
19586;DHT22;9939;49.246;9.106;2022-09-29T03:34:35;7.00;99.90
19586;DHT22;9939;49.246;9.106;2022-09-29T03:37:03;7.00;99.90
19586;DHT22;9939;49.246;9.106;2022-09-29T03:39:30;7.00;99.90
19586;DHT22;9939;49.246;9.106;2022-09-29T03:41:57;7.00;99.90
19586;DHT22;9939;49.246;9.106;2022-09-29T03:44:24;7.10;99.90
19586;DHT22;9939;49.246;9.106;2022-09-29T03:46:51;7.00;99.90
19586;DHT22;9939;49.246;9.106;2022-09-29T03:49:18;6.90;99.90
19586;DHT22;9939;49.246;9.106;2022-09-29T03:51:45;7.00;99.90
19586;DHT22;9939;49.246;9.106;2022-09-29T03:54:12;6.90;99.90
19586;DHT22;9939;49.246;9.106;2022-09-29T03:56:39;6.80;99.90
19586;DHT22;9939;49.246;9.106;2022-09-29T03:59:07;6.90;99.90
19586;DHT22;9939;49.246;9.106;2022-09-29T04:01:36;6.90;99.90
19586;DHT22;9939;49.246;9.106;2022-09-29T04:04:04;7.00;99.90
19586;DHT22;9939;49.246;9.106;2022-09-29T04:06:32;7.00;99.90
19586;DHT22;9939;49.246;9.106;2022-09-29T04:08:59;7.00;99.90
19586;DHT22;9939;49.246;9.106;2022-09-29T04:11:27;7.00;99.90
19586;DHT22;9939;49.246;9.106;2022-09-29T04:13:54;7.00;99.90
19586;DHT22;9939;49.246;9.106;2022-09-29T04:16:21;6.90;99.90
19586;DHT22;9939;49.246;9.106;2022-09-29T04:18:48;6.90;99.90
19586;DHT22;9939;49.246;9.106;2022-09-29T04:21:15;7.00;99.90
19586;DHT22;9939;49.246;9.106;2022-09-29T04:23:42;6.90;99.90
19586;DHT22;9939;49.246;9.106;2022-09-29T04:26:09;6.80;99.90
19586;DHT22;9939;49.246;9.106;2022-09-29T04:28:37;6.80;99.90
19586;DHT22;9939;49.246;9.106;2022-09-29T04:31:04;6.80;99.90
19586;DHT22;9939;49.246;9.106;2022-09-29T04:33:32;6.60;99.90
19586;DHT22;9939;49.246;9.106;2022-09-29T04:35:59;6.60;99.90
19586;DHT22;9939;49.246;9.106;2022-09-29T04:38:26;6.60;99.90
19586;DHT22;9939;49.246;9.106;2022-09-29T04:40:53;6.60;99.90
19586;DHT22;9939;49.246;9.106;2022-09-29T04:43:20;6.50;99.90
19586;DHT22;9939;49.246;9.106;2022-09-29T04:45:47;6.40;99.90
19586;DHT22;9939;49.246;9.106;2022-09-29T04:48:14;6.40;99.90
19586;DHT22;9939;49.246;9.106;2022-09-29T04:50:42;6.40;99.90
19586;DHT22;9939;49.246;9.106;2022-09-29T04:53:10;6.30;99.90
19586;DHT22;9939;49.246;9.106;2022-09-29T04:55:38;6.30;99.90
19586;DHT22;9939;49.246;9.106;2022-09-29T04:58:05;6.10;99.90
19586;DHT22;9939;49.246;9.106;2022-09-29T05:00:32;6.00;99.90
19586;DHT22;9939;49.246;9.106;2022-09-29T05:03:01;6.00;99.90
19586;DHT22;9939;49.246;9.106;2022-09-29T05:05:28;5.90;99.90
19586;DHT22;9939;49.246;9.106;2022-09-29T05:07:55;5.90;99.90
19586;DHT22;9939;49.246;9.106;2022-09-29T05:10:22;5.80;99.90
19586;DHT22;9939;49.246;9.106;2022-09-29T05:12:49;5.90;99.90
19586;DHT22;9939;49.246;9.106;2022-09-29T05:15:18;5.90;99.90
19586;DHT22;9939;49.246;9.106;2022-09-29T05:17:51;5.80;99.90
19586;DHT22;9939;49.246;9.106;2022-09-29T05:20:18;5.90;99.90
19586;DHT22;9939;49.246;9.106;2022-09-29T05:22:46;5.90;99.90
19586;DHT22;9939;49.246;9.106;2022-09-29T05:25:12;5.80;99.90
19586;DHT22;9939;49.246;9.106;2022-09-29T05:27:39;5.80;99.90
19586;DHT22;9939;49.246;9.106;2022-09-29T05:30:07;5.80;99.90
19586;DHT22;9939;49.246;9.106;2022-09-29T05:32:34;5.70;99.90
19586;DHT22;9939;49.246;9.106;2022-09-29T05:35:01;5.80;99.90
19586;DHT22;9939;49.246;9.106;2022-09-29T05:37:29;5.80;99.90
19586;DHT22;9939;49.246;9.106;2022-09-29T05:39:56;5.90;99.90
19586;DHT22;9939;49.246;9.106;2022-09-29T05:42:22;5.90;99.90
19586;DHT22;9939;49.246;9.106;2022-09-29T05:44:51;6.00;99.90
19586;DHT22;9939;49.246;9.106;2022-09-29T05:47:18;6.10;99.90
19586;DHT22;9939;49.246;9.106;2022-09-29T05:49:45;6.10;99.90
19586;DHT22;9939;49.246;9.106;2022-09-29T05:52:12;6.10;99.90
19586;DHT22;9939;49.246;9.106;2022-09-29T05:54:39;6.30;99.90
19586;DHT22;9939;49.246;9.106;2022-09-29T05:57:06;6.20;99.90
19586;DHT22;9939;49.246;9.106;2022-09-29T05:59:33;6.20;99.90
19586;DHT22;9939;49.246;9.106;2022-09-29T06:02:00;6.30;99.90
19586;DHT22;9939;49.246;9.106;2022-09-29T06:04:27;6.40;99.90
19586;DHT22;9939;49.246;9.106;2022-09-29T06:06:54;6.40;99.90
19586;DHT22;9939;49.246;9.106;2022-09-29T06:09:22;6.50;99.90
19586;DHT22;9939;49.246;9.106;2022-09-29T06:11:49;6.50;99.90
19586;DHT22;9939;49.246;9.106;2022-09-29T06:14:16;6.50;99.90
19586;DHT22;9939;49.246;9.106;2022-09-29T06:16:44;6.50;99.90
19586;DHT22;9939;49.246;9.106;2022-09-29T06:19:11;6.70;99.90
19586;DHT22;9939;49.246;9.106;2022-09-29T06:21:39;7.00;99.90
19586;DHT22;9939;49.246;9.106;2022-09-29T06:24:06;7.20;99.90
19586;DHT22;9939;49.246;9.106;2022-09-29T06:26:33;7.40;99.90
19586;DHT22;9939;49.246;9.106;2022-09-29T06:29:01;7.60;99.90
19586;DHT22;9939;49.246;9.106;2022-09-29T06:31:30;7.60;99.90
19586;DHT22;9939;49.246;9.106;2022-09-29T06:33:59;7.70;99.90
19586;DHT22;9939;49.246;9.106;2022-09-29T06:39:15;8.20;99.90
19586;DHT22;9939;49.246;9.106;2022-09-29T06:41:43;8.40;99.90
19586;DHT22;9939;49.246;9.106;2022-09-29T06:44:15;8.50;99.90
19586;DHT22;9939;49.246;9.106;2022-09-29T06:46:41;8.40;99.90
19586;DHT22;9939;49.246;9.106;2022-09-29T06:49:12;8.40;99.90
19586;DHT22;9939;49.246;9.106;2022-09-29T06:51:41;8.70;99.90
19586;DHT22;9939;49.246;9.106;2022-09-29T06:54:14;9.00;99.90
19586;DHT22;9939;49.246;9.106;2022-09-29T06:56:41;9.00;99.90
19586;DHT22;9939;49.246;9.106;2022-09-29T06:59:08;9.00;99.90
19586;DHT22;9939;49.246;9.106;2022-09-29T07:01:35;9.10;99.90
19586;DHT22;9939;49.246;9.106;2022-09-29T07:04:03;9.20;99.90
19586;DHT22;9939;49.246;9.106;2022-09-29T07:06:30;9.10;99.90
19586;DHT22;9939;49.246;9.106;2022-09-29T07:08:57;9.10;99.90
19586;DHT22;9939;49.246;9.106;2022-09-29T07:11:25;9.10;99.90
19586;DHT22;9939;49.246;9.106;2022-09-29T07:13:53;9.20;99.90
19586;DHT22;9939;49.246;9.106;2022-09-29T07:16:21;9.30;99.90
19586;DHT22;9939;49.246;9.106;2022-09-29T07:18:51;9.50;99.90
19586;DHT22;9939;49.246;9.106;2022-09-29T07:21:19;9.50;99.90
19586;DHT22;9939;49.246;9.106;2022-09-29T07:23:48;9.70;99.90
19586;DHT22;9939;49.246;9.106;2022-09-29T07:26:15;10.10;99.90
19586;DHT22;9939;49.246;9.106;2022-09-29T07:28:43;10.10;99.90
19586;DHT22;9939;49.246;9.106;2022-09-29T07:31:20;10.20;99.90
19586;DHT22;9939;49.246;9.106;2022-09-29T07:33:48;10.20;99.90
19586;DHT22;9939;49.246;9.106;2022-09-29T07:36:18;10.20;99.90
19586;DHT22;9939;49.246;9.106;2022-09-29T07:38:46;10.30;99.90
19586;DHT22;9939;49.246;9.106;2022-09-29T07:41:14;10.40;99.90
19586;DHT22;9939;49.246;9.106;2022-09-29T07:43:41;10.50;99.90
19586;DHT22;9939;49.246;9.106;2022-09-29T07:46:08;10.60;99.90
19586;DHT22;9939;49.246;9.106;2022-09-29T07:48:36;10.80;99.90
19586;DHT22;9939;49.246;9.106;2022-09-29T07:51:12;11.20;99.90
19586;DHT22;9939;49.246;9.106;2022-09-29T07:53:40;11.50;99.90
19586;DHT22;9939;49.246;9.106;2022-09-29T07:56:15;11.60;99.90
19586;DHT22;9939;49.246;9.106;2022-09-29T07:58:48;11.60;99.90
19586;DHT22;9939;49.246;9.106;2022-09-29T08:01:17;11.50;99.90
19586;DHT22;9939;49.246;9.106;2022-09-29T08:03:54;11.20;99.90
19586;DHT22;9939;49.246;9.106;2022-09-29T08:06:23;11.50;99.90
19586;DHT22;9939;49.246;9.106;2022-09-29T08:08:51;11.40;99.90
19586;DHT22;9939;49.246;9.106;2022-09-29T08:11:31;11.50;99.90
19586;DHT22;9939;49.246;9.106;2022-09-29T08:13:59;12.00;99.90
19586;DHT22;9939;49.246;9.106;2022-09-29T08:16:27;11.80;99.90
19586;DHT22;9939;49.246;9.106;2022-09-29T08:18:54;11.50;99.90
19586;DHT22;9939;49.246;9.106;2022-09-29T08:21:21;11.80;99.90
19586;DHT22;9939;49.246;9.106;2022-09-29T08:23:48;12.30;99.90
19586;DHT22;9939;49.246;9.106;2022-09-29T08:26:17;12.70;99.90
19586;DHT22;9939;49.246;9.106;2022-09-29T08:28:55;13.00;99.90
19586;DHT22;9939;49.246;9.106;2022-09-29T08:31:34;13.80;99.90
19586;DHT22;9939;49.246;9.106;2022-09-29T08:34:05;15.80;99.90
19586;DHT22;9939;49.246;9.106;2022-09-29T08:36:32;16.90;99.90
19586;DHT22;9939;49.246;9.106;2022-09-29T08:38:59;16.20;99.90
19586;DHT22;9939;49.246;9.106;2022-09-29T08:44:43;16.90;99.90
19586;DHT22;9939;49.246;9.106;2022-09-29T08:49:47;18.50;99.90
19586;DHT22;9939;49.246;9.106;2022-09-29T08:52:21;19.10;99.90
19586;DHT22;9939;49.246;9.106;2022-09-29T08:54:54;19.40;99.90
19586;DHT22;9939;49.246;9.106;2022-09-29T08:57:24;21.00;99.90
19586;DHT22;9939;49.246;9.106;2022-09-29T08:59:55;20.50;99.90
19586;DHT22;9939;49.246;9.106;2022-09-29T09:08:00;18.40;99.90
19586;DHT22;9939;49.246;9.106;2022-09-29T09:10:42;18.40;99.90
19586;DHT22;9939;49.246;9.106;2022-09-29T09:22:21;19.40;99.90
19586;DHT22;9939;49.246;9.106;2022-09-29T09:27:26;19.20;99.90
19586;DHT22;9939;49.246;9.106;2022-09-29T09:30:03;19.20;99.90
19586;DHT22;9939;49.246;9.106;2022-09-29T09:32:36;18.70;99.90
19586;DHT22;9939;49.246;9.106;2022-09-29T09:37:52;20.40;99.90
19586;DHT22;9939;49.246;9.106;2022-09-29T09:40:26;19.50;99.90
19586;DHT22;9939;49.246;9.106;2022-09-29T09:45:47;21.00;99.90
19586;DHT22;9939;49.246;9.106;2022-09-29T09:48:29;21.40;99.90
19586;DHT22;9939;49.246;9.106;2022-09-29T09:51:07;22.00;99.90
19586;DHT22;9939;49.246;9.106;2022-09-29T09:53:40;22.50;99.90
19586;DHT22;9939;49.246;9.106;2022-09-29T09:59:03;21.30;99.90
19586;DHT22;9939;49.246;9.106;2022-09-29T10:01:32;19.90;99.90
19586;DHT22;9939;49.246;9.106;2022-09-29T10:04:00;20.90;99.90
19586;DHT22;9939;49.246;9.106;2022-09-29T10:06:29;21.00;99.90
19586;DHT22;9939;49.246;9.106;2022-09-29T10:08:59;19.10;99.90
19586;DHT22;9939;49.246;9.106;2022-09-29T10:11:29;19.40;99.90
19586;DHT22;9939;49.246;9.106;2022-09-29T10:14:19;18.90;99.90
19586;DHT22;9939;49.246;9.106;2022-09-29T10:16:55;18.80;99.90
19586;DHT22;9939;49.246;9.106;2022-09-29T10:22:19;18.70;99.90
19586;DHT22;9939;49.246;9.106;2022-09-29T10:25:17;17.30;99.90
19586;DHT22;9939;49.246;9.106;2022-09-29T10:27:53;17.30;99.90
19586;DHT22;9939;49.246;9.106;2022-09-29T10:30:32;18.00;99.90
19586;DHT22;9939;49.246;9.106;2022-09-29T10:33:03;18.60;99.90
19586;DHT22;9939;49.246;9.106;2022-09-29T10:35:39;18.20;99.90
19586;DHT22;9939;49.246;9.106;2022-09-29T10:38:15;17.50;99.90
19586;DHT22;9939;49.246;9.106;2022-09-29T10:40:58;17.70;99.90
19586;DHT22;9939;49.246;9.106;2022-09-29T10:46:00;19.20;99.90
19586;DHT22;9939;49.246;9.106;2022-09-29T10:48:27;19.50;99.90
19586;DHT22;9939;49.246;9.106;2022-09-29T10:51:00;19.80;99.90
19586;DHT22;9939;49.246;9.106;2022-09-29T10:53:39;19.80;99.90
19586;DHT22;9939;49.246;9.106;2022-09-29T10:56:21;19.30;99.90
19586;DHT22;9939;49.246;9.106;2022-09-29T10:58:55;19.40;99.90
19586;DHT22;9939;49.246;9.106;2022-09-29T11:01:33;17.80;99.90
19586;DHT22;9939;49.246;9.106;2022-09-29T11:04:21;17.90;99.90
19586;DHT22;9939;49.246;9.106;2022-09-29T11:06:49;18.50;99.90
19586;DHT22;9939;49.246;9.106;2022-09-29T11:16:53;19.50;99.90
19586;DHT22;9939;49.246;9.106;2022-09-29T11:19:22;19.40;99.90
19586;DHT22;9939;49.246;9.106;2022-09-29T11:24:57;18.30;99.90
19586;DHT22;9939;49.246;9.106;2022-09-29T11:30:00;17.90;99.90
19586;DHT22;9939;49.246;9.106;2022-09-29T11:40:19;18.00;99.90
19586;DHT22;9939;49.246;9.106;2022-09-29T11:42:57;17.70;99.90
19586;DHT22;9939;49.246;9.106;2022-09-29T11:45:52;17.90;99.90
19586;DHT22;9939;49.246;9.106;2022-09-29T11:56:40;17.80;99.90
19586;DHT22;9939;49.246;9.106;2022-09-29T12:06:54;18.30;99.90
19586;DHT22;9939;49.246;9.106;2022-09-29T12:12:03;18.80;99.90
19586;DHT22;9939;49.246;9.106;2022-09-29T12:17:35;18.70;99.90
19586;DHT22;9939;49.246;9.106;2022-09-29T12:22:44;17.60;99.90
19586;DHT22;9939;49.246;9.106;2022-09-29T12:25:15;18.30;99.90
19586;DHT22;9939;49.246;9.106;2022-09-29T12:27:44;18.60;99.90
19586;DHT22;9939;49.246;9.106;2022-09-29T12:35:20;17.10;99.90
19586;DHT22;9939;49.246;9.106;2022-09-29T12:37:54;17.60;99.90
19586;DHT22;9939;49.246;9.106;2022-09-29T12:40:39;18.10;99.90
19586;DHT22;9939;49.246;9.106;2022-09-29T12:45:43;17.40;99.90
19586;DHT22;9939;49.246;9.106;2022-09-29T12:48:28;17.50;99.90
19586;DHT22;9939;49.246;9.106;2022-09-29T12:51:44;17.70;99.90
19586;DHT22;9939;49.246;9.106;2022-09-29T12:53:51;17.50;99.90
19586;DHT22;9939;49.246;9.106;2022-09-29T12:56:33;17.30;99.90
19586;DHT22;9939;49.246;9.106;2022-09-29T12:59:09;17.10;99.90
19586;DHT22;9939;49.246;9.106;2022-09-29T13:01:39;17.60;99.90
19586;DHT22;9939;49.246;9.106;2022-09-29T13:09:30;16.50;99.90
19586;DHT22;9939;49.246;9.106;2022-09-29T13:27:40;19.80;99.90
19586;DHT22;9939;49.246;9.106;2022-09-29T13:32:56;20.40;99.90
19586;DHT22;9939;49.246;9.106;2022-09-29T13:35:23;21.00;99.90
19586;DHT22;9939;49.246;9.106;2022-09-29T13:38:00;21.50;99.90
19586;DHT22;9939;49.246;9.106;2022-09-29T13:40:28;22.30;99.90
19586;DHT22;9939;49.246;9.106;2022-09-29T13:43:04;23.20;99.90
19586;DHT22;9939;49.246;9.106;2022-09-29T13:48:01;22.30;99.90
19586;DHT22;9939;49.246;9.106;2022-09-29T13:50:42;21.30;99.90
19586;DHT22;9939;49.246;9.106;2022-09-29T13:55:52;21.90;99.90
19586;DHT22;9939;49.246;9.106;2022-09-29T13:58:22;21.20;99.90
19586;DHT22;9939;49.246;9.106;2022-09-29T14:00:49;21.00;99.90
19586;DHT22;9939;49.246;9.106;2022-09-29T14:03:20;20.90;99.90
19586;DHT22;9939;49.246;9.106;2022-09-29T14:05:53;21.40;99.90
19586;DHT22;9939;49.246;9.106;2022-09-29T14:08:21;23.40;99.90
19586;DHT22;9939;49.246;9.106;2022-09-29T14:10:53;24.70;99.90
19586;DHT22;9939;49.246;9.106;2022-09-29T14:16:08;26.60;99.70
19586;DHT22;9939;49.246;9.106;2022-09-29T14:21:12;25.10;99.90
19586;DHT22;9939;49.246;9.106;2022-09-29T14:26:47;23.40;99.90
19586;DHT22;9939;49.246;9.106;2022-09-29T14:29:25;22.40;99.90
19586;DHT22;9939;49.246;9.106;2022-09-29T14:31:55;21.90;99.90
19586;DHT22;9939;49.246;9.106;2022-09-29T14:34:27;21.80;99.90
19586;DHT22;9939;49.246;9.106;2022-09-29T14:36:55;22.40;99.90
19586;DHT22;9939;49.246;9.106;2022-09-29T14:39:24;23.30;99.90
19586;DHT22;9939;49.246;9.106;2022-09-29T14:41:53;23.60;99.90
19586;DHT22;9939;49.246;9.106;2022-09-29T14:44:28;23.30;99.90
19586;DHT22;9939;49.246;9.106;2022-09-29T14:53:33;21.60;99.90
19586;DHT22;9939;49.246;9.106;2022-09-29T15:04:38;20.30;99.90
19586;DHT22;9939;49.246;9.106;2022-09-29T15:07:14;20.80;99.90
19586;DHT22;9939;49.246;9.106;2022-09-29T15:09:51;21.00;99.90
19586;DHT22;9939;49.246;9.106;2022-09-29T15:12:25;20.90;99.90
19586;DHT22;9939;49.246;9.106;2022-09-29T15:14:54;19.60;99.90
19586;DHT22;9939;49.246;9.106;2022-09-29T15:20:17;20.20;99.90
19586;DHT22;9939;49.246;9.106;2022-09-29T15:30:44;19.10;99.90
19586;DHT22;9939;49.246;9.106;2022-09-29T15:40:53;17.80;99.90
19586;DHT22;9939;49.246;9.106;2022-09-29T15:43:24;17.50;99.90
19586;DHT22;9939;49.246;9.106;2022-09-29T15:45:55;17.40;99.90
19586;DHT22;9939;49.246;9.106;2022-09-29T15:48:24;17.50;99.90
19586;DHT22;9939;49.246;9.106;2022-09-29T15:50:51;17.40;99.90
19586;DHT22;9939;49.246;9.106;2022-09-29T15:53:23;17.30;99.90
19586;DHT22;9939;49.246;9.106;2022-09-29T15:55:51;17.30;99.90
19586;DHT22;9939;49.246;9.106;2022-09-29T16:01:00;16.90;99.90
19586;DHT22;9939;49.246;9.106;2022-09-29T16:03:50;16.50;99.90
19586;DHT22;9939;49.246;9.106;2022-09-29T16:08:57;16.20;99.90
19586;DHT22;9939;49.246;9.106;2022-09-29T16:11:30;16.10;99.90
19586;DHT22;9939;49.246;9.106;2022-09-29T16:14:23;15.80;99.90
19586;DHT22;9939;49.246;9.106;2022-09-29T16:16:53;15.30;99.90
19586;DHT22;9939;49.246;9.106;2022-09-29T16:19:27;14.90;99.90
19586;DHT22;9939;49.246;9.106;2022-09-29T16:21:59;14.60;99.90
19586;DHT22;9939;49.246;9.106;2022-09-29T16:24:32;14.60;99.90
19586;DHT22;9939;49.246;9.106;2022-09-29T16:27:00;14.40;99.90
19586;DHT22;9939;49.246;9.106;2022-09-29T16:29:32;14.30;99.90
19586;DHT22;9939;49.246;9.106;2022-09-29T16:34:47;13.90;99.90
19586;DHT22;9939;49.246;9.106;2022-09-29T16:37:16;13.70;99.90
19586;DHT22;9939;49.246;9.106;2022-09-29T16:39:46;13.50;99.90
19586;DHT22;9939;49.246;9.106;2022-09-29T16:42:21;13.30;99.90
19586;DHT22;9939;49.246;9.106;2022-09-29T16:44:50;13.20;99.90
19586;DHT22;9939;49.246;9.106;2022-09-29T16:47:22;13.10;99.90
19586;DHT22;9939;49.246;9.106;2022-09-29T16:52:47;12.70;99.90
19586;DHT22;9939;49.246;9.106;2022-09-29T16:57:57;12.20;99.90
19586;DHT22;9939;49.246;9.106;2022-09-29T17:00:24;12.10;99.90
19586;DHT22;9939;49.246;9.106;2022-09-29T17:02:52;12.10;99.90
19586;DHT22;9939;49.246;9.106;2022-09-29T17:05:25;11.90;99.90
19586;DHT22;9939;49.246;9.106;2022-09-29T17:08:13;11.90;99.90
19586;DHT22;9939;49.246;9.106;2022-09-29T17:10:40;11.80;99.90
19586;DHT22;9939;49.246;9.106;2022-09-29T17:13:11;11.80;99.90
19586;DHT22;9939;49.246;9.106;2022-09-29T17:15:40;11.60;99.90
19586;DHT22;9939;49.246;9.106;2022-09-29T17:18:13;11.30;99.90
19586;DHT22;9939;49.246;9.106;2022-09-29T17:20:40;11.30;99.90
19586;DHT22;9939;49.246;9.106;2022-09-29T17:23:07;11.20;99.90
19586;DHT22;9939;49.246;9.106;2022-09-29T17:25:35;11.10;99.90
19586;DHT22;9939;49.246;9.106;2022-09-29T17:28:02;11.10;99.90
19586;DHT22;9939;49.246;9.106;2022-09-29T17:30:38;11.10;99.90
19586;DHT22;9939;49.246;9.106;2022-09-29T17:33:07;10.80;99.90
19586;DHT22;9939;49.246;9.106;2022-09-29T17:35:37;10.80;99.90
19586;DHT22;9939;49.246;9.106;2022-09-29T17:38:05;10.80;99.90
19586;DHT22;9939;49.246;9.106;2022-09-29T17:43:03;10.80;99.90
19586;DHT22;9939;49.246;9.106;2022-09-29T17:45:31;10.70;99.90
19586;DHT22;9939;49.246;9.106;2022-09-29T17:48:01;10.70;99.90
19586;DHT22;9939;49.246;9.106;2022-09-29T17:50:29;10.80;99.90
19586;DHT22;9939;49.246;9.106;2022-09-29T17:52:56;10.70;99.90
19586;DHT22;9939;49.246;9.106;2022-09-29T17:55:25;10.70;99.90
19586;DHT22;9939;49.246;9.106;2022-09-29T17:57:53;10.70;99.90
19586;DHT22;9939;49.246;9.106;2022-09-29T18:00:24;10.70;99.90
19586;DHT22;9939;49.246;9.106;2022-09-29T18:02:51;10.60;99.90
19586;DHT22;9939;49.246;9.106;2022-09-29T18:05:23;10.70;99.90
19586;DHT22;9939;49.246;9.106;2022-09-29T18:07:50;10.60;99.90
19586;DHT22;9939;49.246;9.106;2022-09-29T18:10:20;10.50;99.90
19586;DHT22;9939;49.246;9.106;2022-09-29T18:12:48;10.60;99.90
19586;DHT22;9939;49.246;9.106;2022-09-29T18:15:15;10.50;99.90
19586;DHT22;9939;49.246;9.106;2022-09-29T18:17:43;10.50;99.90
19586;DHT22;9939;49.246;9.106;2022-09-29T18:20:15;10.50;99.90
19586;DHT22;9939;49.246;9.106;2022-09-29T18:22:43;10.40;99.90
19586;DHT22;9939;49.246;9.106;2022-09-29T18:25:12;10.50;99.90
19586;DHT22;9939;49.246;9.106;2022-09-29T18:27:39;10.50;99.90
19586;DHT22;9939;49.246;9.106;2022-09-29T18:30:14;10.40;99.90
19586;DHT22;9939;49.246;9.106;2022-09-29T18:32:45;10.40;99.90
19586;DHT22;9939;49.246;9.106;2022-09-29T18:35:14;10.30;99.90
19586;DHT22;9939;49.246;9.106;2022-09-29T18:37:42;10.10;99.90
19586;DHT22;9939;49.246;9.106;2022-09-29T18:40:09;10.10;99.90
19586;DHT22;9939;49.246;9.106;2022-09-29T18:42:43;10.10;99.90
19586;DHT22;9939;49.246;9.106;2022-09-29T18:45:15;10.10;99.90
19586;DHT22;9939;49.246;9.106;2022-09-29T18:47:46;10.10;99.90
19586;DHT22;9939;49.246;9.106;2022-09-29T18:52:40;9.80;99.90
19586;DHT22;9939;49.246;9.106;2022-09-29T18:55:07;9.70;99.90
19586;DHT22;9939;49.246;9.106;2022-09-29T18:57:35;9.70;99.90
19586;DHT22;9939;49.246;9.106;2022-09-29T19:00:02;9.50;99.90
19586;DHT22;9939;49.246;9.106;2022-09-29T19:02:29;9.40;99.90
19586;DHT22;9939;49.246;9.106;2022-09-29T19:04:56;9.30;99.90
19586;DHT22;9939;49.246;9.106;2022-09-29T19:07:23;9.30;99.90
19586;DHT22;9939;49.246;9.106;2022-09-29T19:09:50;9.30;99.90
19586;DHT22;9939;49.246;9.106;2022-09-29T19:12:17;9.10;99.90
19586;DHT22;9939;49.246;9.106;2022-09-29T19:14:46;9.10;99.90
19586;DHT22;9939;49.246;9.106;2022-09-29T19:17:13;9.00;99.90
19586;DHT22;9939;49.246;9.106;2022-09-29T19:19:40;9.00;99.90
19586;DHT22;9939;49.246;9.106;2022-09-29T19:22:07;8.90;99.90
19586;DHT22;9939;49.246;9.106;2022-09-29T19:24:38;9.00;99.90
19586;DHT22;9939;49.246;9.106;2022-09-29T19:27:05;9.10;99.90
19586;DHT22;9939;49.246;9.106;2022-09-29T19:29:32;8.90;99.90
19586;DHT22;9939;49.246;9.106;2022-09-29T19:31:59;8.90;99.90
19586;DHT22;9939;49.246;9.106;2022-09-29T19:34:26;8.90;99.90
19586;DHT22;9939;49.246;9.106;2022-09-29T19:36:53;9.00;99.90
19586;DHT22;9939;49.246;9.106;2022-09-29T19:39:20;8.90;99.90
19586;DHT22;9939;49.246;9.106;2022-09-29T19:41:47;9.00;99.90
19586;DHT22;9939;49.246;9.106;2022-09-29T19:44:14;8.80;99.90
19586;DHT22;9939;49.246;9.106;2022-09-29T19:46:41;8.90;99.90
19586;DHT22;9939;49.246;9.106;2022-09-29T19:49:08;8.90;99.90
19586;DHT22;9939;49.246;9.106;2022-09-29T19:51:35;8.90;99.90
19586;DHT22;9939;49.246;9.106;2022-09-29T19:54:24;8.90;99.90